sensor_id;sensor_type;location;lat;lon;timestamp;P1;durP1;ratioP1;P2;durP2;ratioP2
72797;SDS011;61084;55.816;37.036;2023-04-25T00:00:26;5.90;;;4.10;;
72797;SDS011;61084;55.816;37.036;2023-04-25T00:02:52;9.52;;;4.13;;
72797;SDS011;61084;55.816;37.036;2023-04-25T00:05:18;8.75;;;4.38;;
72797;SDS011;61084;55.816;37.036;2023-04-25T00:07:45;11.07;;;4.13;;
72797;SDS011;61084;55.816;37.036;2023-04-25T00:10:11;9.65;;;3.85;;
72797;SDS011;61084;55.816;37.036;2023-04-25T00:12:37;8.27;;;4.38;;
72797;SDS011;61084;55.816;37.036;2023-04-25T00:17:30;6.13;;;3.92;;
72797;SDS011;61084;55.816;37.036;2023-04-25T00:19:56;8.52;;;3.88;;
72797;SDS011;61084;55.816;37.036;2023-04-25T00:24:49;7.90;;;4.15;;
72797;SDS011;61084;55.816;37.036;2023-04-25T00:27:15;7.65;;;4.22;;
72797;SDS011;61084;55.816;37.036;2023-04-25T00:29:41;11.57;;;4.03;;
72797;SDS011;61084;55.816;37.036;2023-04-25T00:32:07;9.82;;;4.18;;
72797;SDS011;61084;55.816;37.036;2023-04-25T00:34:33;8.73;;;4.38;;
72797;SDS011;61084;55.816;37.036;2023-04-25T00:36:59;11.20;;;4.20;;
72797;SDS011;61084;55.816;37.036;2023-04-25T00:39:27;12.70;;;4.38;;
72797;SDS011;61084;55.816;37.036;2023-04-25T00:41:54;10.20;;;4.18;;
72797;SDS011;61084;55.816;37.036;2023-04-25T00:44:20;8.32;;;4.15;;
72797;SDS011;61084;55.816;37.036;2023-04-25T00:46:47;11.45;;;4.30;;
72797;SDS011;61084;55.816;37.036;2023-04-25T00:49:14;9.30;;;4.35;;
72797;SDS011;61084;55.816;37.036;2023-04-25T00:51:43;12.60;;;4.03;;
72797;SDS011;61084;55.816;37.036;2023-04-25T00:54:12;7.30;;;4.07;;
72797;SDS011;61084;55.816;37.036;2023-04-25T00:56:40;7.22;;;3.80;;
72797;SDS011;61084;55.816;37.036;2023-04-25T00:59:06;10.00;;;4.45;;
72797;SDS011;61084;55.816;37.036;2023-04-25T01:01:32;10.80;;;4.40;;
72797;SDS011;61084;55.816;37.036;2023-04-25T01:03:59;8.27;;;4.13;;
72797;SDS011;61084;55.816;37.036;2023-04-25T01:06:26;8.38;;;4.00;;
72797;SDS011;61084;55.816;37.036;2023-04-25T01:08:52;6.38;;;3.60;;
72797;SDS011;61084;55.816;37.036;2023-04-25T01:11:19;10.88;;;4.20;;
72797;SDS011;61084;55.816;37.036;2023-04-25T01:13:45;11.60;;;4.38;;
72797;SDS011;61084;55.816;37.036;2023-04-25T01:16:11;8.77;;;4.05;;
72797;SDS011;61084;55.816;37.036;2023-04-25T01:18:38;11.70;;;4.28;;
72797;SDS011;61084;55.816;37.036;2023-04-25T01:21:09;10.25;;;4.05;;
72797;SDS011;61084;55.816;37.036;2023-04-25T01:23:40;4.95;;;3.72;;
72797;SDS011;61084;55.816;37.036;2023-04-25T01:26:08;9.40;;;4.30;;
72797;SDS011;61084;55.816;37.036;2023-04-25T01:28:35;11.98;;;4.30;;
72797;SDS011;61084;55.816;37.036;2023-04-25T01:33:28;7.13;;;4.20;;
72797;SDS011;61084;55.816;37.036;2023-04-25T01:35:54;10.48;;;4.80;;
72797;SDS011;61084;55.816;37.036;2023-04-25T01:38:20;6.70;;;4.40;;
72797;SDS011;61084;55.816;37.036;2023-04-25T01:40:46;7.60;;;4.28;;
72797;SDS011;61084;55.816;37.036;2023-04-25T01:43:18;10.73;;;4.55;;
72797;SDS011;61084;55.816;37.036;2023-04-25T01:45:44;8.93;;;4.47;;
72797;SDS011;61084;55.816;37.036;2023-04-25T01:48:13;8.63;;;4.90;;
72797;SDS011;61084;55.816;37.036;2023-04-25T01:50:40;11.70;;;4.25;;
72797;SDS011;61084;55.816;37.036;2023-04-25T01:53:06;9.70;;;4.00;;
72797;SDS011;61084;55.816;37.036;2023-04-25T01:55:35;9.95;;;4.10;;
72797;SDS011;61084;55.816;37.036;2023-04-25T01:58:05;9.85;;;4.65;;
72797;SDS011;61084;55.816;37.036;2023-04-25T02:01:07;10.32;;;4.72;;
72797;SDS011;61084;55.816;37.036;2023-04-25T02:03:40;10.07;;;4.20;;
72797;SDS011;61084;55.816;37.036;2023-04-25T02:06:13;6.10;;;3.90;;
72797;SDS011;61084;55.816;37.036;2023-04-25T02:08:42;13.05;;;4.97;;
72797;SDS011;61084;55.816;37.036;2023-04-25T02:11:10;9.55;;;4.38;;
72797;SDS011;61084;55.816;37.036;2023-04-25T02:13:42;9.35;;;4.15;;
72797;SDS011;61084;55.816;37.036;2023-04-25T02:16:31;15.98;;;5.32;;
72797;SDS011;61084;55.816;37.036;2023-04-25T02:18:59;10.55;;;5.22;;
72797;SDS011;61084;55.816;37.036;2023-04-25T02:21:25;7.50;;;4.40;;
72797;SDS011;61084;55.816;37.036;2023-04-25T02:23:51;7.93;;;4.55;;
72797;SDS011;61084;55.816;37.036;2023-04-25T02:26:17;9.52;;;4.85;;
72797;SDS011;61084;55.816;37.036;2023-04-25T02:28:43;14.00;;;4.25;;
72797;SDS011;61084;55.816;37.036;2023-04-25T02:31:09;7.30;;;4.22;;
72797;SDS011;61084;55.816;37.036;2023-04-25T02:33:35;9.73;;;4.32;;
72797;SDS011;61084;55.816;37.036;2023-04-25T02:36:00;11.65;;;4.18;;
72797;SDS011;61084;55.816;37.036;2023-04-25T02:38:26;10.23;;;4.47;;
72797;SDS011;61084;55.816;37.036;2023-04-25T02:40:52;11.25;;;4.45;;
72797;SDS011;61084;55.816;37.036;2023-04-25T02:43:18;11.50;;;4.80;;
72797;SDS011;61084;55.816;37.036;2023-04-25T02:45:44;10.38;;;4.38;;
72797;SDS011;61084;55.816;37.036;2023-04-25T02:48:11;9.82;;;4.97;;
72797;SDS011;61084;55.816;37.036;2023-04-25T02:50:36;8.82;;;4.20;;
72797;SDS011;61084;55.816;37.036;2023-04-25T02:53:02;10.07;;;4.22;;
72797;SDS011;61084;55.816;37.036;2023-04-25T02:55:35;8.95;;;4.30;;
72797;SDS011;61084;55.816;37.036;2023-04-25T02:58:02;8.55;;;4.30;;
72797;SDS011;61084;55.816;37.036;2023-04-25T03:00:54;9.43;;;4.43;;
72797;SDS011;61084;55.816;37.036;2023-04-25T03:03:20;10.52;;;4.78;;
72797;SDS011;61084;55.816;37.036;2023-04-25T03:05:50;8.88;;;4.30;;
72797;SDS011;61084;55.816;37.036;2023-04-25T03:08:21;10.25;;;4.65;;
72797;SDS011;61084;55.816;37.036;2023-04-25T03:10:48;9.90;;;4.38;;
72797;SDS011;61084;55.816;37.036;2023-04-25T03:13:15;10.77;;;4.68;;
72797;SDS011;61084;55.816;37.036;2023-04-25T03:15:43;11.40;;;4.43;;
72797;SDS011;61084;55.816;37.036;2023-04-25T03:18:09;12.25;;;4.60;;
72797;SDS011;61084;55.816;37.036;2023-04-25T03:20:35;24.48;;;4.97;;
72797;SDS011;61084;55.816;37.036;2023-04-25T03:23:02;13.05;;;4.05;;
72797;SDS011;61084;55.816;37.036;2023-04-25T03:25:29;12.68;;;4.70;;
72797;SDS011;61084;55.816;37.036;2023-04-25T03:27:55;11.70;;;4.28;;
72797;SDS011;61084;55.816;37.036;2023-04-25T03:30:21;12.70;;;4.90;;
72797;SDS011;61084;55.816;37.036;2023-04-25T03:32:47;10.50;;;4.93;;
72797;SDS011;61084;55.816;37.036;2023-04-25T03:35:16;13.32;;;4.45;;
72797;SDS011;61084;55.816;37.036;2023-04-25T03:37:42;11.15;;;5.10;;
72797;SDS011;61084;55.816;37.036;2023-04-25T03:40:14;14.43;;;4.70;;
72797;SDS011;61084;55.816;37.036;2023-04-25T03:43:06;11.38;;;4.80;;
72797;SDS011;61084;55.816;37.036;2023-04-25T03:45:33;11.77;;;4.70;;
72797;SDS011;61084;55.816;37.036;2023-04-25T03:47:59;10.70;;;4.90;;
72797;SDS011;61084;55.816;37.036;2023-04-25T03:50:27;12.52;;;5.03;;
72797;SDS011;61084;55.816;37.036;2023-04-25T03:52:53;11.13;;;4.90;;
72797;SDS011;61084;55.816;37.036;2023-04-25T03:55:19;10.93;;;4.47;;
72797;SDS011;61084;55.816;37.036;2023-04-25T03:57:45;12.05;;;5.47;;
72797;SDS011;61084;55.816;37.036;2023-04-25T04:00:12;15.25;;;5.70;;
72797;SDS011;61084;55.816;37.036;2023-04-25T04:02:41;8.57;;;4.20;;
72797;SDS011;61084;55.816;37.036;2023-04-25T04:05:09;11.88;;;4.35;;
72797;SDS011;61084;55.816;37.036;2023-04-25T04:07:38;16.15;;;5.18;;
72797;SDS011;61084;55.816;37.036;2023-04-25T04:10:08;22.27;;;5.05;;
72797;SDS011;61084;55.816;37.036;2023-04-25T04:12:38;14.30;;;4.55;;
72797;SDS011;61084;55.816;37.036;2023-04-25T04:15:05;15.95;;;5.07;;
72797;SDS011;61084;55.816;37.036;2023-04-25T04:17:33;13.85;;;4.88;;
72797;SDS011;61084;55.816;37.036;2023-04-25T04:19:59;12.13;;;5.57;;
72797;SDS011;61084;55.816;37.036;2023-04-25T04:22:31;10.88;;;4.95;;
72797;SDS011;61084;55.816;37.036;2023-04-25T04:25:03;15.07;;;4.88;;
72797;SDS011;61084;55.816;37.036;2023-04-25T04:28:06;11.43;;;4.63;;
72797;SDS011;61084;55.816;37.036;2023-04-25T04:30:41;14.82;;;5.75;;
72797;SDS011;61084;55.816;37.036;2023-04-25T04:33:08;9.43;;;4.45;;
72797;SDS011;61084;55.816;37.036;2023-04-25T04:35:35;12.77;;;4.65;;
72797;SDS011;61084;55.816;37.036;2023-04-25T04:38:01;10.13;;;4.10;;
72797;SDS011;61084;55.816;37.036;2023-04-25T04:40:32;9.98;;;4.95;;
72797;SDS011;61084;55.816;37.036;2023-04-25T04:43:10;16.85;;;5.75;;
72797;SDS011;61084;55.816;37.036;2023-04-25T04:45:55;13.32;;;5.38;;
72797;SDS011;61084;55.816;37.036;2023-04-25T04:48:43;12.48;;;4.60;;
72797;SDS011;61084;55.816;37.036;2023-04-25T04:51:28;18.63;;;4.45;;
72797;SDS011;61084;55.816;37.036;2023-04-25T04:53:53;15.65;;;4.50;;
72797;SDS011;61084;55.816;37.036;2023-04-25T04:56:42;11.95;;;5.38;;
72797;SDS011;61084;55.816;37.036;2023-04-25T04:59:24;8.63;;;3.92;;
72797;SDS011;61084;55.816;37.036;2023-04-25T05:02:10;12.70;;;4.90;;
72797;SDS011;61084;55.816;37.036;2023-04-25T05:04:48;8.88;;;4.65;;
72797;SDS011;61084;55.816;37.036;2023-04-25T05:07:30;41.95;;;5.00;;
72797;SDS011;61084;55.816;37.036;2023-04-25T05:10:16;17.45;;;4.50;;
72797;SDS011;61084;55.816;37.036;2023-04-25T05:12:54;16.83;;;4.70;;
72797;SDS011;61084;55.816;37.036;2023-04-25T05:15:38;7.82;;;3.85;;
72797;SDS011;61084;55.816;37.036;2023-04-25T05:18:13;8.65;;;3.67;;
72797;SDS011;61084;55.816;37.036;2023-04-25T05:21:02;13.60;;;3.90;;
72797;SDS011;61084;55.816;37.036;2023-04-25T05:23:40;8.02;;;3.58;;
72797;SDS011;61084;55.816;37.036;2023-04-25T05:26:22;9.48;;;4.03;;
72797;SDS011;61084;55.816;37.036;2023-04-25T05:29:15;13.23;;;3.88;;
72797;SDS011;61084;55.816;37.036;2023-04-25T05:32:01;9.52;;;3.50;;
72797;SDS011;61084;55.816;37.036;2023-04-25T05:36:56;6.28;;;3.35;;
72797;SDS011;61084;55.816;37.036;2023-04-25T05:42:12;7.72;;;3.33;;
72797;SDS011;61084;55.816;37.036;2023-04-25T05:45:02;7.40;;;3.60;;
72797;SDS011;61084;55.816;37.036;2023-04-25T05:47:46;7.72;;;3.28;;
72797;SDS011;61084;55.816;37.036;2023-04-25T05:50:22;7.93;;;3.25;;
72797;SDS011;61084;55.816;37.036;2023-04-25T05:53:11;7.65;;;3.17;;
72797;SDS011;61084;55.816;37.036;2023-04-25T05:55:42;12.52;;;3.60;;
72797;SDS011;61084;55.816;37.036;2023-04-25T05:58:23;10.35;;;3.15;;
72797;SDS011;61084;55.816;37.036;2023-04-25T06:00:49;17.10;;;3.55;;
72797;SDS011;61084;55.816;37.036;2023-04-25T06:03:16;11.02;;;3.53;;
72797;SDS011;61084;55.816;37.036;2023-04-25T06:05:42;7.35;;;3.63;;
72797;SDS011;61084;55.816;37.036;2023-04-25T06:08:27;12.13;;;3.50;;
72797;SDS011;61084;55.816;37.036;2023-04-25T06:10:53;13.25;;;3.60;;
72797;SDS011;61084;55.816;37.036;2023-04-25T06:13:19;12.02;;;3.20;;
72797;SDS011;61084;55.816;37.036;2023-04-25T06:15:45;10.43;;;3.00;;
72797;SDS011;61084;55.816;37.036;2023-04-25T06:18:11;10.98;;;3.30;;
72797;SDS011;61084;55.816;37.036;2023-04-25T06:20:37;8.32;;;2.92;;
72797;SDS011;61084;55.816;37.036;2023-04-25T06:23:04;6.68;;;2.60;;
72797;SDS011;61084;55.816;37.036;2023-04-25T06:25:56;7.50;;;2.30;;
72797;SDS011;61084;55.816;37.036;2023-04-25T06:28:22;6.80;;;2.58;;
72797;SDS011;61084;55.816;37.036;2023-04-25T06:30:50;6.82;;;2.85;;
72797;SDS011;61084;55.816;37.036;2023-04-25T06:33:18;8.25;;;2.80;;
72797;SDS011;61084;55.816;37.036;2023-04-25T06:35:45;10.93;;;3.33;;
72797;SDS011;61084;55.816;37.036;2023-04-25T06:38:14;6.82;;;2.40;;
72797;SDS011;61084;55.816;37.036;2023-04-25T06:40:45;7.40;;;2.78;;
72797;SDS011;61084;55.816;37.036;2023-04-25T06:43:11;7.45;;;2.67;;
72797;SDS011;61084;55.816;37.036;2023-04-25T06:46:03;10.00;;;2.75;;
72797;SDS011;61084;55.816;37.036;2023-04-25T06:48:32;13.98;;;3.20;;
72797;SDS011;61084;55.816;37.036;2023-04-25T06:50:58;8.98;;;3.35;;
72797;SDS011;61084;55.816;37.036;2023-04-25T06:53:25;8.95;;;3.03;;
72797;SDS011;61084;55.816;37.036;2023-04-25T06:55:57;7.18;;;3.13;;
72797;SDS011;61084;55.816;37.036;2023-04-25T06:58:28;9.07;;;3.53;;
72797;SDS011;61084;55.816;37.036;2023-04-25T07:01:02;10.18;;;3.50;;
72797;SDS011;61084;55.816;37.036;2023-04-25T07:03:28;8.80;;;3.70;;
72797;SDS011;61084;55.816;37.036;2023-04-25T07:06:01;6.95;;;4.05;;
72797;SDS011;61084;55.816;37.036;2023-04-25T07:08:28;10.63;;;3.50;;
72797;SDS011;61084;55.816;37.036;2023-04-25T07:10:56;9.85;;;3.20;;
72797;SDS011;61084;55.816;37.036;2023-04-25T07:13:22;6.03;;;3.53;;
72797;SDS011;61084;55.816;37.036;2023-04-25T07:15:48;15.88;;;3.42;;
72797;SDS011;61084;55.816;37.036;2023-04-25T07:18:15;10.95;;;3.63;;
72797;SDS011;61084;55.816;37.036;2023-04-25T07:23:07;11.93;;;3.50;;
72797;SDS011;61084;55.816;37.036;2023-04-25T07:25:34;7.07;;;3.10;;
72797;SDS011;61084;55.816;37.036;2023-04-25T07:28:01;6.93;;;2.90;;
72797;SDS011;61084;55.816;37.036;2023-04-25T07:30:28;6.53;;;2.65;;
72797;SDS011;61084;55.816;37.036;2023-04-25T07:32:54;10.80;;;3.42;;
72797;SDS011;61084;55.816;37.036;2023-04-25T07:35:21;12.93;;;3.45;;
72797;SDS011;61084;55.816;37.036;2023-04-25T07:37:47;4.90;;;2.60;;
72797;SDS011;61084;55.816;37.036;2023-04-25T07:40:19;9.35;;;3.03;;
72797;SDS011;61084;55.816;37.036;2023-04-25T07:45:41;6.05;;;2.50;;
72797;SDS011;61084;55.816;37.036;2023-04-25T07:48:08;8.65;;;2.65;;
72797;SDS011;61084;55.816;37.036;2023-04-25T07:50:36;5.15;;;2.90;;
72797;SDS011;61084;55.816;37.036;2023-04-25T07:53:02;6.25;;;2.90;;
72797;SDS011;61084;55.816;37.036;2023-04-25T07:55:37;8.65;;;3.60;;
72797;SDS011;61084;55.816;37.036;2023-04-25T07:58:14;9.80;;;2.95;;
72797;SDS011;61084;55.816;37.036;2023-04-25T08:00:43;8.23;;;2.75;;
72797;SDS011;61084;55.816;37.036;2023-04-25T08:03:25;6.47;;;2.80;;
72797;SDS011;61084;55.816;37.036;2023-04-25T08:05:52;8.18;;;2.85;;
72797;SDS011;61084;55.816;37.036;2023-04-25T08:08:19;6.20;;;2.60;;
72797;SDS011;61084;55.816;37.036;2023-04-25T08:10:45;8.52;;;3.00;;
72797;SDS011;61084;55.816;37.036;2023-04-25T08:13:12;10.55;;;2.78;;
72797;SDS011;61084;55.816;37.036;2023-04-25T08:15:39;4.38;;;2.75;;
72797;SDS011;61084;55.816;37.036;2023-04-25T08:20:31;8.00;;;2.40;;
72797;SDS011;61084;55.816;37.036;2023-04-25T08:22:59;6.60;;;2.55;;
72797;SDS011;61084;55.816;37.036;2023-04-25T08:25:45;9.57;;;2.60;;
72797;SDS011;61084;55.816;37.036;2023-04-25T08:28:14;12.50;;;3.00;;
72797;SDS011;61084;55.816;37.036;2023-04-25T08:30:40;9.48;;;2.92;;
72797;SDS011;61084;55.816;37.036;2023-04-25T08:33:10;6.75;;;2.63;;
72797;SDS011;61084;55.816;37.036;2023-04-25T08:35:45;9.13;;;3.08;;
72797;SDS011;61084;55.816;37.036;2023-04-25T08:38:12;14.88;;;3.30;;
72797;SDS011;61084;55.816;37.036;2023-04-25T08:40:38;7.90;;;3.17;;
72797;SDS011;61084;55.816;37.036;2023-04-25T08:43:11;10.23;;;3.00;;
72797;SDS011;61084;55.816;37.036;2023-04-25T08:45:41;7.00;;;2.92;;
72797;SDS011;61084;55.816;37.036;2023-04-25T08:48:12;15.55;;;3.30;;
72797;SDS011;61084;55.816;37.036;2023-04-25T08:50:41;11.32;;;3.63;;
72797;SDS011;61084;55.816;37.036;2023-04-25T08:53:12;8.15;;;3.30;;
72797;SDS011;61084;55.816;37.036;2023-04-25T08:55:46;20.65;;;3.90;;
72797;SDS011;61084;55.816;37.036;2023-04-25T09:00:38;18.00;;;3.42;;
72797;SDS011;61084;55.816;37.036;2023-04-25T09:03:04;12.23;;;3.03;;
72797;SDS011;61084;55.816;37.036;2023-04-25T09:05:32;8.48;;;3.30;;
72797;SDS011;61084;55.816;37.036;2023-04-25T09:07:59;11.20;;;2.83;;
72797;SDS011;61084;55.816;37.036;2023-04-25T09:10:27;12.80;;;3.72;;
72797;SDS011;61084;55.816;37.036;2023-04-25T09:13:06;16.45;;;3.65;;
72797;SDS011;61084;55.816;37.036;2023-04-25T09:16:12;12.98;;;4.18;;
72797;SDS011;61084;55.816;37.036;2023-04-25T09:19:32;8.88;;;3.25;;
72797;SDS011;61084;55.816;37.036;2023-04-25T09:22:04;12.68;;;3.30;;
72797;SDS011;61084;55.816;37.036;2023-04-25T09:26:59;6.93;;;3.50;;
72797;SDS011;61084;55.816;37.036;2023-04-25T09:29:33;9.95;;;3.40;;
72797;SDS011;61084;55.816;37.036;2023-04-25T09:34:42;10.00;;;3.67;;
72797;SDS011;61084;55.816;37.036;2023-04-25T09:37:11;8.57;;;3.60;;
72797;SDS011;61084;55.816;37.036;2023-04-25T09:39:56;13.63;;;3.92;;
72797;SDS011;61084;55.816;37.036;2023-04-25T09:42:32;8.02;;;3.50;;
72797;SDS011;61084;55.816;37.036;2023-04-25T09:45:00;8.35;;;3.88;;
72797;SDS011;61084;55.816;37.036;2023-04-25T09:47:31;8.40;;;3.22;;
72797;SDS011;61084;55.816;37.036;2023-04-25T09:49:59;10.23;;;3.28;;
72797;SDS011;61084;55.816;37.036;2023-04-25T09:52:25;7.20;;;3.42;;
72797;SDS011;61084;55.816;37.036;2023-04-25T09:55:11;7.70;;;3.17;;
72797;SDS011;61084;55.816;37.036;2023-04-25T09:57:37;7.10;;;3.30;;
72797;SDS011;61084;55.816;37.036;2023-04-25T10:00:06;10.43;;;3.17;;
72797;SDS011;61084;55.816;37.036;2023-04-25T10:02:42;14.40;;;3.40;;
72797;SDS011;61084;55.816;37.036;2023-04-25T10:05:23;5.28;;;3.03;;
72797;SDS011;61084;55.816;37.036;2023-04-25T10:07:53;8.68;;;2.80;;
72797;SDS011;61084;55.816;37.036;2023-04-25T10:10:20;6.68;;;3.17;;
72797;SDS011;61084;55.816;37.036;2023-04-25T10:12:51;11.88;;;3.53;;
72797;SDS011;61084;55.816;37.036;2023-04-25T10:15:17;8.65;;;3.03;;
72797;SDS011;61084;55.816;37.036;2023-04-25T10:17:43;9.30;;;3.30;;
72797;SDS011;61084;55.816;37.036;2023-04-25T10:20:10;16.42;;;3.30;;
72797;SDS011;61084;55.816;37.036;2023-04-25T10:22:37;12.25;;;3.00;;
72797;SDS011;61084;55.816;37.036;2023-04-25T10:25:06;13.18;;;3.50;;
72797;SDS011;61084;55.816;37.036;2023-04-25T10:27:34;13.40;;;3.17;;
72797;SDS011;61084;55.816;37.036;2023-04-25T10:30:01;11.00;;;3.08;;
72797;SDS011;61084;55.816;37.036;2023-04-25T10:32:36;5.10;;;3.08;;
72797;SDS011;61084;55.816;37.036;2023-04-25T10:37:37;14.18;;;2.90;;
72797;SDS011;61084;55.816;37.036;2023-04-25T10:40:10;4.80;;;2.42;;
72797;SDS011;61084;55.816;37.036;2023-04-25T10:42:36;5.00;;;2.22;;
72797;SDS011;61084;55.816;37.036;2023-04-25T10:45:04;9.60;;;2.83;;
72797;SDS011;61084;55.816;37.036;2023-04-25T10:47:35;6.78;;;2.65;;
72797;SDS011;61084;55.816;37.036;2023-04-25T10:50:05;5.10;;;2.50;;
72797;SDS011;61084;55.816;37.036;2023-04-25T10:52:33;7.43;;;2.40;;
72797;SDS011;61084;55.816;37.036;2023-04-25T10:54:59;3.13;;;2.10;;
72797;SDS011;61084;55.816;37.036;2023-04-25T10:57:40;6.88;;;2.08;;
72797;SDS011;61084;55.816;37.036;2023-04-25T11:02:51;6.07;;;1.98;;
72797;SDS011;61084;55.816;37.036;2023-04-25T11:07:52;4.75;;;1.70;;
72797;SDS011;61084;55.816;37.036;2023-04-25T11:10:26;12.63;;;2.20;;
72797;SDS011;61084;55.816;37.036;2023-04-25T11:12:53;6.90;;;2.10;;
72797;SDS011;61084;55.816;37.036;2023-04-25T11:15:19;8.55;;;1.80;;
72797;SDS011;61084;55.816;37.036;2023-04-25T11:17:45;8.80;;;1.90;;
72797;SDS011;61084;55.816;37.036;2023-04-25T11:20:12;5.20;;;2.10;;
72797;SDS011;61084;55.816;37.036;2023-04-25T11:22:39;8.77;;;2.20;;
72797;SDS011;61084;55.816;37.036;2023-04-25T11:25:09;5.45;;;1.90;;
72797;SDS011;61084;55.816;37.036;2023-04-25T11:30:24;5.75;;;1.98;;
72797;SDS011;61084;55.816;37.036;2023-04-25T11:32:51;4.25;;;1.90;;
72797;SDS011;61084;55.816;37.036;2023-04-25T11:35:21;11.25;;;2.47;;
72797;SDS011;61084;55.816;37.036;2023-04-25T11:37:48;6.05;;;2.00;;
72797;SDS011;61084;55.816;37.036;2023-04-25T11:40:15;4.50;;;2.40;;
72797;SDS011;61084;55.816;37.036;2023-04-25T11:42:45;8.48;;;2.42;;
72797;SDS011;61084;55.816;37.036;2023-04-25T11:45:12;6.13;;;2.58;;
72797;SDS011;61084;55.816;37.036;2023-04-25T11:47:39;6.90;;;2.50;;
72797;SDS011;61084;55.816;37.036;2023-04-25T11:52:42;6.63;;;2.53;;
72797;SDS011;61084;55.816;37.036;2023-04-25T11:55:12;9.23;;;2.80;;
72797;SDS011;61084;55.816;37.036;2023-04-25T11:57:39;7.40;;;2.90;;
72797;SDS011;61084;55.816;37.036;2023-04-25T12:00:10;6.78;;;2.30;;
72797;SDS011;61084;55.816;37.036;2023-04-25T12:05:06;8.25;;;2.55;;
72797;SDS011;61084;55.816;37.036;2023-04-25T12:07:36;4.40;;;2.20;;
72797;SDS011;61084;55.816;37.036;2023-04-25T12:10:09;9.77;;;2.50;;
72797;SDS011;61084;55.816;37.036;2023-04-25T12:12:37;6.20;;;2.17;;
72797;SDS011;61084;55.816;37.036;2023-04-25T12:15:11;7.40;;;2.17;;
72797;SDS011;61084;55.816;37.036;2023-04-25T12:17:40;2.22;;;1.90;;
72797;SDS011;61084;55.816;37.036;2023-04-25T12:20:10;5.57;;;2.80;;
72797;SDS011;61084;55.816;37.036;2023-04-25T12:22:40;7.00;;;2.30;;
72797;SDS011;61084;55.816;37.036;2023-04-25T12:25:10;7.43;;;2.35;;
72797;SDS011;61084;55.816;37.036;2023-04-25T12:27:38;9.70;;;2.78;;
72797;SDS011;61084;55.816;37.036;2023-04-25T12:30:09;6.93;;;2.70;;
72797;SDS011;61084;55.816;37.036;2023-04-25T12:32:36;5.40;;;2.83;;
72797;SDS011;61084;55.816;37.036;2023-04-25T12:35:04;4.93;;;2.35;;
72797;SDS011;61084;55.816;37.036;2023-04-25T12:37:32;5.47;;;2.58;;
72797;SDS011;61084;55.816;37.036;2023-04-25T12:39:57;4.30;;;2.35;;
72797;SDS011;61084;55.816;37.036;2023-04-25T12:42:23;5.72;;;2.20;;
72797;SDS011;61084;55.816;37.036;2023-04-25T12:44:49;3.20;;;2.08;;
72797;SDS011;61084;55.816;37.036;2023-04-25T12:47:15;5.63;;;2.15;;
72797;SDS011;61084;55.816;37.036;2023-04-25T12:49:41;8.32;;;2.30;;
72797;SDS011;61084;55.816;37.036;2023-04-25T12:52:06;7.72;;;2.25;;
72797;SDS011;61084;55.816;37.036;2023-04-25T12:54:32;6.22;;;2.50;;
72797;SDS011;61084;55.816;37.036;2023-04-25T12:56:58;3.50;;;2.25;;
72797;SDS011;61084;55.816;37.036;2023-04-25T12:59:24;4.05;;;1.98;;
72797;SDS011;61084;55.816;37.036;2023-04-25T13:01:50;8.20;;;2.55;;
72797;SDS011;61084;55.816;37.036;2023-04-25T13:04:16;6.38;;;2.63;;
72797;SDS011;61084;55.816;37.036;2023-04-25T13:06:41;4.07;;;2.20;;
72797;SDS011;61084;55.816;37.036;2023-04-25T13:09:07;6.15;;;2.15;;
72797;SDS011;61084;55.816;37.036;2023-04-25T13:11:33;6.50;;;2.40;;
72797;SDS011;61084;55.816;37.036;2023-04-25T13:14:00;4.00;;;1.90;;
72797;SDS011;61084;55.816;37.036;2023-04-25T13:16:26;7.90;;;2.40;;
72797;SDS011;61084;55.816;37.036;2023-04-25T13:18:52;5.68;;;1.98;;
72797;SDS011;61084;55.816;37.036;2023-04-25T13:21:18;4.25;;;2.15;;
72797;SDS011;61084;55.816;37.036;2023-04-25T13:23:44;6.90;;;2.28;;
72797;SDS011;61084;55.816;37.036;2023-04-25T13:26:11;6.57;;;2.10;;
72797;SDS011;61084;55.816;37.036;2023-04-25T13:28:37;4.78;;;1.98;;
72797;SDS011;61084;55.816;37.036;2023-04-25T13:31:03;5.75;;;2.05;;
72797;SDS011;61084;55.816;37.036;2023-04-25T13:33:30;9.60;;;2.25;;
72797;SDS011;61084;55.816;37.036;2023-04-25T13:35:56;7.88;;;1.73;;
72797;SDS011;61084;55.816;37.036;2023-04-25T13:38:23;6.45;;;2.10;;
72797;SDS011;61084;55.816;37.036;2023-04-25T13:40:49;10.13;;;2.22;;
72797;SDS011;61084;55.816;37.036;2023-04-25T13:43:20;6.07;;;2.00;;
72797;SDS011;61084;55.816;37.036;2023-04-25T13:45:49;6.53;;;2.03;;
72797;SDS011;61084;55.816;37.036;2023-04-25T13:48:17;6.03;;;1.67;;
72797;SDS011;61084;55.816;37.036;2023-04-25T13:50:43;6.30;;;1.50;;
72797;SDS011;61084;55.816;37.036;2023-04-25T13:53:10;8.68;;;2.35;;
72797;SDS011;61084;55.816;37.036;2023-04-25T13:55:36;7.63;;;1.60;;
72797;SDS011;61084;55.816;37.036;2023-04-25T13:58:02;6.72;;;1.88;;
72797;SDS011;61084;55.816;37.036;2023-04-25T14:00:35;4.22;;;2.08;;
72797;SDS011;61084;55.816;37.036;2023-04-25T14:03:03;5.55;;;1.70;;
72797;SDS011;61084;55.816;37.036;2023-04-25T14:05:32;11.20;;;2.13;;
72797;SDS011;61084;55.816;37.036;2023-04-25T14:08:00;6.28;;;1.80;;
72797;SDS011;61084;55.816;37.036;2023-04-25T14:10:26;9.00;;;1.90;;
72797;SDS011;61084;55.816;37.036;2023-04-25T14:12:51;4.18;;;1.52;;
72797;SDS011;61084;55.816;37.036;2023-04-25T14:15:17;2.92;;;1.52;;
72797;SDS011;61084;55.816;37.036;2023-04-25T14:17:43;8.88;;;1.90;;
72797;SDS011;61084;55.816;37.036;2023-04-25T14:20:11;8.15;;;1.73;;
72797;SDS011;61084;55.816;37.036;2023-04-25T14:22:36;5.65;;;1.67;;
72797;SDS011;61084;55.816;37.036;2023-04-25T14:25:06;7.25;;;1.85;;
72797;SDS011;61084;55.816;37.036;2023-04-25T14:27:33;8.77;;;1.83;;
72797;SDS011;61084;55.816;37.036;2023-04-25T14:29:58;6.93;;;2.00;;
72797;SDS011;61084;55.816;37.036;2023-04-25T14:32:24;6.53;;;1.63;;
72797;SDS011;61084;55.816;37.036;2023-04-25T14:34:50;4.93;;;1.70;;
72797;SDS011;61084;55.816;37.036;2023-04-25T14:37:16;8.77;;;1.70;;
72797;SDS011;61084;55.816;37.036;2023-04-25T14:39:42;4.65;;;1.80;;
72797;SDS011;61084;55.816;37.036;2023-04-25T14:42:07;3.88;;;1.50;;
72797;SDS011;61084;55.816;37.036;2023-04-25T14:44:33;7.85;;;1.92;;
72797;SDS011;61084;55.816;37.036;2023-04-25T14:46:59;6.57;;;1.90;;
72797;SDS011;61084;55.816;37.036;2023-04-25T14:49:25;6.65;;;1.75;;
72797;SDS011;61084;55.816;37.036;2023-04-25T14:51:51;3.53;;;1.95;;
72797;SDS011;61084;55.816;37.036;2023-04-25T14:54:17;15.32;;;2.20;;
72797;SDS011;61084;55.816;37.036;2023-04-25T14:56:42;5.65;;;1.85;;
72797;SDS011;61084;55.816;37.036;2023-04-25T14:59:08;6.60;;;1.65;;
72797;SDS011;61084;55.816;37.036;2023-04-25T15:01:34;5.53;;;2.20;;
72797;SDS011;61084;55.816;37.036;2023-04-25T15:04:00;7.47;;;2.00;;
72797;SDS011;61084;55.816;37.036;2023-04-25T15:06:26;8.32;;;2.10;;
72797;SDS011;61084;55.816;37.036;2023-04-25T15:08:53;10.73;;;2.55;;
72797;SDS011;61084;55.816;37.036;2023-04-25T15:11:20;5.15;;;1.90;;
72797;SDS011;61084;55.816;37.036;2023-04-25T15:16:11;4.95;;;1.83;;
72797;SDS011;61084;55.816;37.036;2023-04-25T15:18:37;5.32;;;1.92;;
72797;SDS011;61084;55.816;37.036;2023-04-25T15:23:29;5.82;;;2.20;;
72797;SDS011;61084;55.816;37.036;2023-04-25T15:25:55;8.80;;;2.28;;
72797;SDS011;61084;55.816;37.036;2023-04-25T15:30:47;5.00;;;1.92;;
72797;SDS011;61084;55.816;37.036;2023-04-25T15:33:13;7.10;;;2.00;;
72797;SDS011;61084;55.816;37.036;2023-04-25T15:35:40;3.88;;;1.83;;